createdAt,value
2022-11-26T00:01:25.379Z,38.15
2022-11-26T00:03:53.616Z,35.38
2022-11-26T00:06:45.280Z,34.72
2022-11-26T00:09:18.396Z,34.30
2022-11-26T00:11:46.815Z,33.00
2022-11-26T00:14:16.105Z,37.63
2022-11-26T00:16:45.319Z,36.13
2022-11-26T00:19:16.291Z,33.40
2022-11-26T00:21:44.460Z,33.97
2022-11-26T00:24:27.104Z,37.30
2022-11-26T00:26:59.328Z,32.50
2022-11-26T00:29:27.214Z,32.08
2022-11-26T00:31:55.612Z,31.75
2022-11-26T00:34:23.424Z,32.17
2022-11-26T00:36:51.638Z,33.40
2022-11-26T00:39:25.057Z,36.78
2022-11-26T00:41:54.027Z,33.65
2022-11-26T00:44:24.844Z,33.65
2022-11-26T00:46:53.342Z,35.05
2022-11-26T00:49:21.243Z,33.55
2022-11-26T00:51:49.412Z,34.40
2022-11-26T00:54:18.880Z,33.75
2022-11-26T00:56:49.450Z,32.47
2022-11-26T00:59:23.945Z,35.10
2022-11-26T01:01:54.791Z,36.55
2022-11-26T01:04:22.643Z,37.15
2022-11-26T01:06:50.902Z,35.33
2022-11-26T01:09:21.586Z,33.95
2022-11-26T01:11:53.835Z,34.17
2022-11-26T01:14:23.431Z,32.70
2022-11-26T01:16:53.462Z,30.60
2022-11-26T01:19:21.353Z,31.65
2022-11-26T01:21:49.557Z,32.88
2022-11-26T01:24:17.302Z,29.80
2022-11-26T01:26:45.773Z,30.13
2022-11-26T01:29:19.012Z,31.38
2022-11-26T01:31:48.068Z,31.73
2022-11-26T01:34:16.219Z,31.75
2022-11-26T01:36:44.742Z,33.53
2022-11-26T01:39:21.218Z,32.15
2022-11-26T01:42:14.386Z,31.15
2022-11-26T01:44:42.262Z,30.20
2022-11-26T01:47:40.227Z,31.40
2022-11-26T01:50:46.835Z,30.67
2022-11-26T01:53:24.109Z,31.95
2022-11-26T01:55:56.179Z,30.60
2022-11-26T01:58:40.045Z,30.70
2022-11-26T02:01:11.023Z,31.58
2022-11-26T02:03:50.280Z,28.35
2022-11-26T02:06:23.192Z,28.38
2022-11-26T02:08:51.477Z,29.05
2022-11-26T02:11:22.216Z,29.25
2022-11-26T02:14:17.820Z,30.45
2022-11-26T02:17:03.605Z,28.15
2022-11-26T02:19:56.398Z,29.40
2022-11-26T02:22:50.707Z,29.30
2022-11-26T02:25:41.846Z,28.55
2022-11-26T02:28:35.827Z,28.10
2022-11-26T02:31:31.577Z,29.40
2022-11-26T02:34:13.891Z,27.73
2022-11-26T02:36:54.040Z,28.35
2022-11-26T02:39:24.696Z,28.95
2022-11-26T02:41:55.716Z,28.23
2022-11-26T02:44:47.494Z,26.73
2022-11-26T02:47:20.341Z,28.63
2022-11-26T02:49:50.632Z,29.30
2022-11-26T02:52:19.788Z,29.83
2022-11-26T02:57:21.570Z,26.80
2022-11-26T02:59:49.879Z,27.67
2022-11-26T03:02:28.466Z,27.13
2022-11-26T03:05:01.251Z,29.15
2022-11-26T03:07:32.370Z,26.80
2022-11-26T03:12:30.216Z,27.38
2022-11-26T03:14:58.150Z,26.45
2022-11-26T03:17:26.224Z,29.25
2022-11-26T03:19:56.381Z,26.67
2022-11-26T03:22:24.666Z,27.23
2022-11-26T03:24:52.510Z,27.63
2022-11-26T03:27:20.646Z,28.85
2022-11-26T03:29:48.486Z,29.67
2022-11-26T03:32:16.625Z,30.98
2022-11-26T03:34:44.453Z,30.08
2022-11-26T03:37:13.002Z,28.58
2022-11-26T03:39:41.691Z,29.73
2022-11-26T03:42:10.102Z,28.15
2022-11-26T03:44:38.413Z,28.42
2022-11-26T03:47:06.798Z,29.55
2022-11-26T03:49:34.777Z,29.13
2022-11-26T03:52:03.103Z,30.23
2022-11-26T03:54:34.290Z,28.48
2022-11-26T03:57:07.724Z,31.15
2022-11-26T03:59:35.506Z,29.17
2022-11-26T04:02:11.072Z,31.73
2022-11-26T04:04:39.268Z,32.22
2022-11-26T04:07:07.670Z,30.23
2022-11-26T04:09:35.724Z,31.20
2022-11-26T04:12:04.400Z,29.13
2022-11-26T04:14:32.289Z,31.48
2022-11-26T04:17:00.448Z,30.50
2022-11-26T04:19:28.396Z,30.58
2022-11-26T04:21:56.519Z,32.92
2022-11-26T04:24:25.406Z,29.23
2022-11-26T04:26:54.443Z,32.93
2022-11-26T04:29:22.305Z,37.05
2022-11-26T04:31:50.471Z,30.27
2022-11-26T04:34:18.297Z,29.63
2022-11-26T04:36:46.472Z,28.98
2022-11-26T04:39:15.385Z,30.88
2022-11-26T04:41:43.567Z,30.90
2022-11-26T04:44:11.420Z,29.63
2022-11-26T04:46:39.798Z,30.90
2022-11-26T04:49:07.640Z,30.98
2022-11-26T04:51:35.896Z,30.38
2022-11-26T04:54:06.488Z,27.98
2022-11-26T04:56:38.667Z,29.65
2022-11-26T04:59:06.595Z,27.50
2022-11-26T05:01:35.410Z,28.80
2022-11-26T05:04:03.870Z,27.13
2022-11-26T05:06:32.136Z,26.63
2022-11-26T05:09:00.315Z,27.90
2022-11-26T05:11:28.616Z,27.73
2022-11-26T05:13:56.973Z,29.80
2022-11-26T05:16:25.259Z,28.95
2022-11-26T05:18:55.261Z,34.30
2022-11-26T05:21:26.650Z,28.83
2022-11-26T05:23:54.502Z,30.98
2022-11-26T05:26:22.744Z,27.77
2022-11-26T05:28:50.570Z,27.17
2022-11-26T05:31:33.691Z,28.85
2022-11-26T05:34:01.588Z,27.48
2022-11-26T05:36:29.753Z,28.63
2022-11-26T05:38:57.590Z,27.88
2022-11-26T05:41:25.793Z,29.35
2022-11-26T05:43:53.601Z,28.30
2022-11-26T05:46:21.902Z,28.85
2022-11-26T05:48:49.651Z,30.80
2022-11-26T05:51:17.835Z,30.13
2022-11-26T05:53:45.600Z,33.95
2022-11-26T05:56:14.023Z,30.42
2022-11-26T05:58:45.577Z,31.38
2022-11-26T06:01:14.088Z,30.30
2022-11-26T06:03:42.472Z,33.97
2022-11-26T06:06:10.900Z,31.92
2022-11-26T06:08:38.845Z,31.00
2022-11-26T06:11:07.067Z,32.63
2022-11-26T06:13:35.089Z,32.08
2022-11-26T06:16:03.696Z,31.70
2022-11-26T06:18:31.833Z,30.48
2022-11-26T06:21:01.838Z,27.85
2022-11-26T06:23:30.085Z,30.42
2022-11-26T06:25:58.264Z,30.15
2022-11-26T06:28:26.449Z,29.33
2022-11-26T06:30:54.686Z,31.83
2022-11-26T06:33:24.884Z,29.92
2022-11-26T06:35:53.274Z,29.50
2022-11-26T06:38:21.124Z,33.97
2022-11-26T06:40:49.483Z,40.08
2022-11-26T06:43:17.248Z,39.00
2022-11-26T06:45:45.384Z,33.55
2022-11-26T06:48:13.158Z,31.95
2022-11-26T06:50:43.613Z,42.25
2022-11-26T06:53:13.295Z,44.88
2022-11-26T06:55:46.845Z,40.00
2022-11-26T06:58:19.003Z,30.52
2022-11-26T07:00:48.163Z,29.52
2022-11-26T07:03:20.986Z,28.17
2022-11-26T07:05:51.827Z,33.90
2022-11-26T07:08:19.809Z,45.35
2022-11-26T07:10:50.227Z,81.93
2022-11-26T07:13:18.192Z,49.83
2022-11-26T07:15:46.442Z,38.00
2022-11-26T07:18:15.443Z,33.13
2022-11-26T07:20:43.632Z,31.70
2022-11-26T07:23:12.076Z,30.63
2022-11-26T07:25:40.322Z,30.75
2022-11-26T07:28:08.155Z,31.17
2022-11-26T07:30:36.404Z,28.77
2022-11-26T07:33:04.337Z,30.25
2022-11-26T07:35:33.322Z,30.02
2022-11-26T07:38:03.659Z,32.47
2022-11-26T07:40:31.872Z,107.82
2022-11-26T07:43:01.105Z,35.60
2022-11-26T07:45:32.044Z,34.00
2022-11-26T07:48:00.315Z,37.97
2022-11-26T07:50:37.794Z,230.02
2022-11-26T07:53:06.004Z,501.75
2022-11-26T07:55:34.435Z,78.95
2022-11-26T07:58:02.455Z,45.83
2022-11-26T08:00:39.465Z,38.58
2022-11-26T08:03:07.222Z,41.95
2022-11-26T08:05:35.597Z,35.80
2022-11-26T08:08:03.481Z,36.58
2022-11-26T08:10:31.944Z,37.85
2022-11-26T08:13:00.454Z,35.45
2022-11-26T08:15:29.016Z,43.45
2022-11-26T08:17:58.127Z,50.00
2022-11-26T08:20:29.126Z,44.15
2022-11-26T08:25:28.857Z,44.25
2022-11-26T08:27:56.840Z,41.38
2022-11-26T08:30:28.208Z,36.00
2022-11-26T08:32:58.672Z,35.30
2022-11-26T08:35:51.229Z,40.17
2022-11-26T08:38:17.607Z,36.05
2022-11-26T08:40:47.085Z,38.83
2022-11-26T08:43:39.605Z,37.15
2022-11-26T08:46:12.461Z,38.65
2022-11-26T08:48:40.393Z,37.72
2022-11-26T08:51:12.930Z,39.42
2022-11-26T08:53:40.954Z,40.22
2022-11-26T08:56:12.924Z,33.58
2022-11-26T08:58:49.269Z,37.53
2022-11-26T09:01:24.902Z,37.80
2022-11-26T09:03:55.379Z,32.85
2022-11-26T09:06:25.494Z,35.10
2022-11-26T09:09:12.897Z,36.83
2022-11-26T09:11:51.391Z,36.60
2022-11-26T09:14:21.898Z,36.80
2022-11-26T09:16:50.268Z,32.80
2022-11-26T09:19:19.022Z,32.15
2022-11-26T09:21:47.846Z,33.83
2022-11-26T09:24:17.419Z,32.97
2022-11-26T09:26:46.090Z,31.35
2022-11-26T09:29:15.860Z,34.28
2022-11-26T09:32:07.879Z,35.67
2022-11-26T09:34:33.369Z,31.48
2022-11-26T09:37:01.688Z,37.63
2022-11-26T09:39:29.743Z,36.97
2022-11-26T09:42:35.564Z,34.22
2022-11-26T09:45:20.656Z,33.60
2022-11-26T09:47:53.387Z,33.58
2022-11-26T09:50:27.287Z,39.40
2022-11-26T09:53:04.417Z,30.60
2022-11-26T09:55:39.012Z,37.50
2022-11-26T09:58:27.496Z,39.47
2022-11-26T10:01:01.074Z,33.70
2022-11-26T10:03:34.219Z,38.67
2022-11-26T10:06:16.533Z,37.42
2022-11-26T10:08:50.681Z,33.40
2022-11-26T10:11:29.927Z,38.35
2022-11-26T10:14:38.862Z,30.80
2022-11-26T10:17:24.007Z,30.83
2022-11-26T10:20:00.104Z,33.00
2022-11-26T10:22:42.070Z,37.60
2022-11-26T10:25:17.867Z,39.10
2022-11-26T10:27:48.337Z,37.45
2022-11-26T10:30:23.443Z,35.88
2022-11-26T10:32:53.099Z,33.85
2022-11-26T10:35:25.209Z,37.35
2022-11-26T10:37:56.263Z,34.22
2022-11-26T10:40:27.395Z,38.42
2022-11-26T10:45:40.558Z,33.08
2022-11-26T10:48:31.067Z,37.95
2022-11-26T10:51:16.820Z,53.22
2022-11-26T10:53:55.537Z,59.85
2022-11-26T10:56:37.148Z,44.63
2022-11-26T10:59:17.313Z,46.33
2022-11-26T11:01:45.641Z,46.92
2022-11-26T11:04:29.498Z,34.75
2022-11-26T11:06:59.510Z,36.97
2022-11-26T11:09:33.343Z,37.50
2022-11-26T11:12:22.148Z,42.75
2022-11-26T11:14:51.615Z,38.50
2022-11-26T11:17:35.719Z,40.38
2022-11-26T11:20:17.585Z,39.85
2022-11-26T11:22:47.324Z,33.72
2022-11-26T11:25:28.331Z,34.75
2022-11-26T11:28:15.645Z,59.58
2022-11-26T11:30:47.021Z,49.03
2022-11-26T11:33:25.157Z,47.03
2022-11-26T11:36:19.327Z,40.03
2022-11-26T11:38:51.800Z,44.00
2022-11-26T11:41:39.471Z,37.80
2022-11-26T11:44:16.232Z,49.53
2022-11-26T11:47:05.433Z,42.45
2022-11-26T11:49:54.558Z,42.75
2022-11-26T11:52:53.125Z,40.80
2022-11-26T11:55:27.507Z,37.30
2022-11-26T11:58:39.856Z,33.83
2022-11-26T12:01:29.429Z,33.20
2022-11-26T12:04:19.911Z,33.20
2022-11-26T12:07:00.137Z,40.95
2022-11-26T12:09:41.911Z,43.03
2022-11-26T12:12:35.640Z,47.90
2022-11-26T12:15:35.895Z,48.20
2022-11-26T12:18:22.816Z,47.03
2022-11-26T12:21:03.518Z,45.42
2022-11-26T12:23:52.646Z,42.78
2022-11-26T12:26:32.485Z,46.47
2022-11-26T12:29:13.660Z,33.03
2022-11-26T12:32:28.360Z,46.67
2022-11-26T12:35:04.461Z,53.53
2022-11-26T12:37:37.588Z,50.10
2022-11-26T12:40:38.766Z,41.28
2022-11-26T12:43:26.069Z,44.38
2022-11-26T12:46:14.758Z,43.28
2022-11-26T12:49:03.345Z,44.03
2022-11-26T12:51:41.450Z,44.63
2022-11-26T12:54:47.475Z,52.28
2022-11-26T12:57:48.433Z,55.90
2022-11-26T13:00:26.195Z,49.53
2022-11-26T13:02:56.455Z,44.75
2022-11-26T13:05:56.199Z,49.45
2022-11-26T13:08:33.272Z,38.07
2022-11-26T13:11:31.056Z,47.25
2022-11-26T13:14:23.340Z,43.35
2022-11-26T13:17:04.870Z,46.05
2022-11-26T13:20:07.768Z,40.05
2022-11-26T13:22:36.146Z,47.00
2022-11-26T13:25:19.524Z,54.08
2022-11-26T13:27:59.467Z,61.65
2022-11-26T13:30:46.021Z,48.15
2022-11-26T13:33:35.091Z,56.53
2022-11-26T13:36:09.405Z,48.25
2022-11-26T13:41:28.384Z,60.35
2022-11-26T13:44:17.580Z,48.65
2022-11-26T13:46:57.959Z,51.03
2022-11-26T13:49:51.287Z,44.97
2022-11-26T13:52:51.018Z,42.95
2022-11-26T13:55:37.672Z,43.80
2022-11-26T13:58:14.859Z,48.28
2022-11-26T14:00:44.764Z,52.15
2022-11-26T14:03:46.485Z,65.95
2022-11-26T14:06:15.745Z,57.28
2022-11-26T14:08:49.454Z,92.15
2022-11-26T14:11:42.069Z,67.75
2022-11-26T14:14:41.080Z,78.50
2022-11-26T14:17:09.357Z,59.05
2022-11-26T14:19:40.659Z,46.58
2022-11-26T14:22:20.996Z,49.53
2022-11-26T14:24:51.673Z,50.40
2022-11-26T14:27:24.394Z,71.70
2022-11-26T14:30:08.728Z,60.30
2022-11-26T14:32:46.300Z,61.67
2022-11-26T14:35:35.641Z,58.88
2022-11-26T14:38:22.012Z,72.90
2022-11-26T14:40:58.606Z,84.38
2022-11-26T14:43:28.274Z,76.60
2022-11-26T14:46:14.200Z,68.40
2022-11-26T14:48:48.098Z,58.13
2022-11-26T14:51:24.561Z,59.20
2022-11-26T14:53:54.270Z,77.70
2022-11-26T14:56:24.847Z,63.13
2022-11-26T14:59:02.611Z,69.15
2022-11-26T15:01:33.241Z,68.07
2022-11-26T15:04:06.164Z,56.97
2022-11-26T15:06:42.765Z,73.60
2022-11-26T15:09:17.129Z,79.05
2022-11-26T15:11:55.322Z,76.60
2022-11-26T15:15:09.372Z,64.72
2022-11-26T15:17:43.415Z,70.20
2022-11-26T15:20:16.112Z,65.90
2022-11-26T15:22:53.220Z,53.28
2022-11-26T15:25:25.380Z,66.15
2022-11-26T15:28:05.631Z,62.78
2022-11-26T15:30:38.803Z,61.55
2022-11-26T15:33:12.638Z,119.55
2022-11-26T15:35:41.231Z,84.47
2022-11-26T15:38:21.004Z,74.68
2022-11-26T15:40:54.175Z,85.35
2022-11-26T15:43:31.088Z,66.63
2022-11-26T15:46:13.684Z,62.13
2022-11-26T15:48:53.359Z,67.93
2022-11-26T15:51:44.003Z,89.97
2022-11-26T15:55:10.749Z,90.47
2022-11-26T15:57:37.015Z,70.53
2022-11-26T16:00:18.552Z,46.58
2022-11-26T16:02:47.123Z,71.32
2022-11-26T16:05:34.877Z,61.03
2022-11-26T16:08:06.108Z,53.00
2022-11-26T16:10:39.421Z,52.85
2022-11-26T16:13:16.141Z,44.63
2022-11-26T16:15:52.480Z,44.53
2022-11-26T16:18:24.096Z,45.65
2022-11-26T16:21:13.778Z,54.65
2022-11-26T16:23:42.456Z,47.50
2022-11-26T16:26:19.586Z,61.53
2022-11-26T16:28:48.279Z,60.58
2022-11-26T16:31:17.969Z,64.32
2022-11-26T16:33:46.608Z,55.80
2022-11-26T16:36:19.723Z,57.58
2022-11-26T16:38:51.295Z,61.50
2022-11-26T16:41:22.485Z,51.75
2022-11-26T16:43:50.866Z,49.88
2022-11-26T16:46:23.574Z,42.92
2022-11-26T16:48:52.459Z,43.67
2022-11-26T16:51:21.968Z,43.72
2022-11-26T16:53:49.918Z,50.65
2022-11-26T16:56:26.285Z,35.03
2022-11-26T16:58:55.230Z,36.50
2022-11-26T17:01:26.071Z,36.28
2022-11-26T17:03:54.587Z,42.10
2022-11-26T17:06:36.458Z,42.03
2022-11-26T17:09:04.163Z,45.13
2022-11-26T17:11:32.324Z,57.72
2022-11-26T17:14:00.142Z,62.35
2022-11-26T17:16:29.344Z,47.70
2022-11-26T17:18:57.422Z,59.03
2022-11-26T17:21:25.755Z,71.78
2022-11-26T17:23:53.782Z,82.82
2022-11-26T17:26:24.144Z,134.80
2022-11-26T17:28:52.024Z,134.13
2022-11-26T17:31:20.228Z,105.57
2022-11-26T17:33:48.153Z,105.85
2022-11-26T17:36:23.184Z,97.40
2022-11-26T17:38:52.021Z,86.95
2022-11-26T17:41:20.175Z,60.95
2022-11-26T17:43:48.242Z,49.28
2022-11-26T17:46:19.789Z,41.55
2022-11-26T17:48:48.858Z,44.47
2022-11-26T17:51:18.392Z,42.65
2022-11-26T17:53:49.351Z,45.25
2022-11-26T17:56:27.140Z,49.65
2022-11-26T17:58:55.681Z,60.70
2022-11-26T18:01:24.263Z,77.85
2022-11-26T18:03:53.063Z,80.25
2022-11-26T18:06:35.057Z,76.32
2022-11-26T18:09:02.839Z,74.03
2022-11-26T18:11:52.232Z,83.70
2022-11-26T18:14:21.154Z,78.93
2022-11-26T18:16:50.197Z,62.17
2022-11-26T18:19:20.426Z,75.50
2022-11-26T18:21:52.245Z,69.22
2022-11-26T18:24:20.198Z,63.80
2022-11-26T18:26:48.409Z,65.50
2022-11-26T18:29:16.305Z,86.18
2022-11-26T18:31:44.406Z,51.38
2022-11-26T18:34:12.203Z,47.60
2022-11-26T18:36:40.337Z,51.00
2022-11-26T18:39:08.149Z,57.33
2022-11-26T18:41:36.449Z,72.13
2022-11-26T18:44:04.747Z,64.05
2022-11-26T18:46:33.206Z,65.95
2022-11-26T18:49:00.970Z,56.78
2022-11-26T18:51:29.159Z,50.75
2022-11-26T18:53:56.946Z,47.40
2022-11-26T18:56:25.260Z,45.42
2022-11-26T18:58:53.242Z,46.80
2022-11-26T19:01:24.719Z,44.17
2022-11-26T19:03:52.968Z,39.83
2022-11-26T19:06:23.676Z,50.33
2022-11-26T19:08:56.774Z,51.25
2022-11-26T19:11:25.626Z,43.28
2022-11-26T19:13:55.119Z,36.35
2022-11-26T19:16:24.496Z,44.78
2022-11-26T19:18:53.251Z,55.00
2022-11-26T19:21:24.971Z,53.25
2022-11-26T19:23:57.119Z,47.95
2022-11-26T19:26:25.532Z,50.70
2022-11-26T19:28:53.547Z,50.03
2022-11-26T19:31:24.606Z,53.03
2022-11-26T19:36:27.977Z,56.92
2022-11-26T19:38:59.817Z,46.83
2022-11-26T19:41:28.867Z,47.47
2022-11-26T19:43:56.952Z,37.53
2022-11-26T19:46:26.001Z,49.65
2022-11-26T19:48:54.277Z,60.45
2022-11-26T19:51:24.119Z,52.92
2022-11-26T19:53:53.356Z,43.67
2022-11-26T19:56:24.925Z,51.70
2022-11-26T19:58:58.781Z,135.93
2022-11-26T20:01:30.894Z,57.08
2022-11-26T20:04:00.518Z,58.50
2022-11-26T20:06:30.532Z,60.10
2022-11-26T20:08:59.323Z,71.05
2022-11-26T20:11:29.267Z,79.20
2022-11-26T20:13:57.925Z,78.53
2022-11-26T20:16:28.957Z,46.47
2022-11-26T20:18:57.702Z,40.08
2022-11-26T20:21:29.269Z,46.00
2022-11-26T20:24:00.620Z,45.80
2022-11-26T20:26:31.787Z,46.50
2022-11-26T20:29:03.160Z,57.35
2022-11-26T20:31:32.876Z,60.92
2022-11-26T20:34:04.893Z,68.28
2022-11-26T20:36:33.203Z,77.00
2022-11-26T20:39:02.803Z,71.05
2022-11-26T20:41:31.538Z,70.40
2022-11-26T20:43:59.888Z,69.72
2022-11-26T20:46:32.365Z,65.78
2022-11-26T20:49:00.356Z,49.65
2022-11-26T20:51:28.643Z,53.05
2022-11-26T20:53:59.660Z,141.32
2022-11-26T20:56:29.225Z,186.32
2022-11-26T20:59:03.262Z,170.38
2022-11-26T21:01:31.755Z,168.45
2022-11-26T21:03:59.805Z,98.32
2022-11-26T21:06:30.738Z,92.88
2022-11-26T21:09:04.496Z,95.53
2022-11-26T21:11:35.708Z,74.05
2022-11-26T21:14:04.226Z,53.60
2022-11-26T21:16:33.795Z,85.95
2022-11-26T21:19:02.463Z,68.78
2022-11-26T21:21:31.105Z,120.53
2022-11-26T21:23:59.287Z,110.68
2022-11-26T21:26:27.802Z,114.40
2022-11-26T21:29:00.392Z,193.30
2022-11-26T21:31:30.519Z,272.70
2022-11-26T21:34:05.489Z,129.85
2022-11-26T21:36:36.053Z,102.18
2022-11-26T21:39:04.744Z,97.60
2022-11-26T21:41:33.951Z,62.90
2022-11-26T21:44:04.233Z,62.38
2022-11-26T21:46:38.260Z,56.33
2022-11-26T21:49:08.034Z,46.22
2022-11-26T21:51:36.441Z,54.92
2022-11-26T21:54:04.851Z,52.50
2022-11-26T21:56:33.689Z,49.55
2022-11-26T21:59:02.432Z,42.70
2022-11-26T22:01:36.638Z,35.45
2022-11-26T22:04:20.218Z,38.35
2022-11-26T22:06:49.307Z,38.85
2022-11-26T22:09:19.831Z,37.35
2022-11-26T22:11:48.217Z,46.42
2022-11-26T22:14:17.809Z,41.25
2022-11-26T22:19:19.369Z,42.75
2022-11-26T22:21:47.644Z,52.38
2022-11-26T22:24:19.228Z,50.65
2022-11-26T22:26:48.357Z,49.53
2022-11-26T22:29:17.772Z,78.35
2022-11-26T22:31:48.453Z,51.13
2022-11-26T22:34:18.526Z,58.97
2022-11-26T22:36:46.998Z,41.97
2022-11-26T22:39:17.428Z,62.55
2022-11-26T22:41:48.608Z,49.97
2022-11-26T22:44:17.205Z,54.90
2022-11-26T22:46:45.946Z,56.47
2022-11-26T22:49:15.959Z,51.22
2022-11-26T22:51:44.765Z,67.90
2022-11-26T22:54:14.069Z,65.82
2022-11-26T22:56:42.589Z,60.45
2022-11-26T22:59:13.416Z,52.00
2022-11-26T23:01:42.514Z,65.93
2022-11-26T23:04:11.504Z,47.35
2022-11-26T23:06:40.105Z,45.20
2022-11-26T23:09:09.556Z,56.35
2022-11-26T23:11:39.822Z,55.15
2022-11-26T23:14:09.800Z,56.20
2022-11-26T23:16:43.060Z,71.18
2022-11-26T23:19:14.473Z,91.03
2022-11-26T23:21:45.054Z,69.75
2022-11-26T23:24:15.198Z,54.10
2022-11-26T23:26:44.152Z,46.25
2022-11-26T23:29:12.609Z,41.60
2022-11-26T23:31:43.897Z,37.65
2022-11-26T23:34:12.428Z,42.40
2022-11-26T23:36:40.953Z,36.35
2022-11-26T23:39:11.482Z,32.95
2022-11-26T23:41:39.798Z,37.92
2022-11-26T23:44:07.937Z,35.20
2022-11-26T23:46:36.215Z,30.45
2022-11-26T23:49:04.955Z,29.48
2022-11-26T23:51:33.901Z,81.90
2022-11-26T23:54:01.962Z,53.78
2022-11-26T23:56:33.963Z,38.08
2022-11-26T23:59:04.566Z,34.47
